Dobrodošli na spletni strani vremenske postaje Senovo. Vse informacije so informativnega značaja, saj vremenska postaja ni del državne mreže meteoroloških postaj. OBVESTILO: Letni količini padavin navedeni na spletni strani je potrebno prišteti 98,1 mm, zaradi izgube podatkov.


Posebna pozornost v zvezi z vremenskimi dogajanji ni potrebna.    Posebna pozornost v zvezi z vremenskimi dogajanji ni potrebna.

Pogled proti Armezu več informacij Pogled proti Armezu


Lisca več informacij Lisca


Radar strel več informacij blitzortung!


Radar padavin več informacij rain snow radar


Obiščite še:

Template documentation
and downloads

And another site



Weather Underground, zgodovina - Tekstovno

Dnevni povzetek za Avgust 14, 2017 Enote:  Metrično    Angleško   Obe
« Predhodni Dan
Naslednji Dan »
Dnevni Tedenski Mesečni Letni Po meri
  Višja: Nižja: Povprečje:
Temperatura: 28.4 °C 12.3 °C 19.8 °C
Točka rosišča: 17.7 °C 11.5 °C 13.7 °C
Vlažnost: 96 % 40 % 72 %
Hitrost vetra: 7.2 km/h 0.0 km/h 1.7 km/h
Sunki vetra: 14.0 km/h - -
Veter:- - SSE
Zračni tlak: 1022.9 hPa 1019.9 hPa -
Padavine: 0.0 mm    
Historical Graphs
 
 
Tabelarni podarki za Avgust 14, 2017
Čas Temperatura Točka rosišča Zračni tlak Veter Hitrost vetra Sunki vetra Vlažnost Intenziteta padavin (urna)
00:02 15.4 °C 13.6 °C 1021.9 hPa Calm   1.4 km/h 89 % 0.0 mm
00:07 15.4 °C 13.6 °C 1021.9 hPa Calm   1.4 km/h 89 % 0.0 mm
00:12 15.3 °C 13.5 °C 1021.9 hPa Calm   1.4 km/h 89 % 0.0 mm
00:17 15.2 °C 13.4 °C 1021.9 hPa Calm     89 % 0.0 mm
00:22 15.2 °C 13.6 °C 1021.9 hPa Calm     90 % 0.0 mm
00:27 15.1 °C 13.4 °C 1021.9 hPa Calm     90 % 0.0 mm
00:32 15.0 °C 13.4 °C 1021.9 hPa Calm     90 % 0.0 mm
00:37 15.0 °C 13.4 °C 1021.9 hPa Calm     90 % 0.0 mm
00:42 14.9 °C 13.3 °C 1021.9 hPa Calm     90 % 0.0 mm
00:47 14.9 °C 13.4 °C 1021.9 hPa Calm     91 % 0.0 mm
00:52 14.8 °C 13.3 °C 1021.9 hPa Calm     91 % 0.0 mm
00:57 14.7 °C 13.2 °C 1021.9 hPa Calm     91 % 0.0 mm
01:02 14.6 °C 13.2 °C 1021.9 hPa Calm     91 % 0.0 mm
01:07 14.6 °C 13.2 °C 1021.9 hPa Calm     91 % 0.0 mm
01:12 14.5 °C 13.1 °C 1021.9 hPa Calm   1.8 km/h 91 % 0.0 mm
01:17 14.5 °C 13.1 °C 1021.9 hPa Calm   1.8 km/h 91 % 0.0 mm
01:22 14.4 °C 12.9 °C 1021.9 hPa Calm     91 % 0.0 mm
01:27 14.4 °C 12.9 °C 1021.9 hPa Calm     91 % 0.0 mm
01:32 14.3 °C 12.8 °C 1021.9 hPa Calm     91 % 0.0 mm
01:37 14.3 °C 12.8 °C 1021.9 hPa Calm     91 % 0.0 mm
01:42 14.2 °C 12.8 °C 1021.9 hPa Calm     91 % 0.0 mm
01:47 14.2 °C 12.8 °C 1021.9 hPa Calm     91 % 0.0 mm
01:52 14.1 °C 12.8 °C 1021.9 hPa West 0.3 km/h 3.5 km/h 92 % 0.0 mm
01:57 14.1 °C 12.7 °C 1021.9 hPa WNW 1.0 km/h 3.5 km/h 91 % 0.0 mm
02:02 14.0 °C 12.7 °C 1021.9 hPa WNW 0.6 km/h 3.2 km/h 92 % 0.0 mm
02:07 13.9 °C 12.6 °C 1021.9 hPa Calm     92 % 0.0 mm
02:12 13.9 °C 12.6 °C 1021.9 hPa Calm     92 % 0.0 mm
02:17 13.8 °C 12.5 °C 1021.9 hPa Calm     92 % 0.0 mm
02:23 13.8 °C 12.5 °C 1021.9 hPa Calm     92 % 0.0 mm
02:28 13.7 °C 12.4 °C 1021.9 hPa Calm     92 % 0.0 mm
02:33 13.7 °C 12.4 °C 1021.9 hPa Calm     92 % 0.0 mm
02:38 13.6 °C 12.3 °C 1021.9 hPa Calm     92 % 0.0 mm
02:43 13.6 °C 12.5 °C 1021.9 hPa Calm     93 % 0.0 mm
02:48 13.5 °C 12.4 °C 1021.9 hPa Calm     93 % 0.0 mm
02:58 13.4 °C 12.3 °C 1021.9 hPa Calm     93 % 0.0 mm
03:03 13.4 °C 12.3 °C 1021.9 hPa Calm     93 % 0.0 mm
03:08 13.3 °C 12.2 °C 1021.9 hPa Calm     93 % 0.0 mm
03:13 13.4 °C 12.3 °C 1021.9 hPa Calm     93 % 0.0 mm
03:18 13.3 °C 12.2 °C 1021.9 hPa Calm     93 % 0.0 mm
03:23 13.3 °C 12.2 °C 1021.9 hPa Calm     93 % 0.0 mm
03:28 13.2 °C 12.1 °C 1021.9 hPa Calm     93 % 0.0 mm
03:33 13.2 °C 12.1 °C 1021.9 hPa Calm     93 % 0.0 mm
03:38 13.1 °C 12.0 °C 1021.9 hPa Calm     93 % 0.0 mm
03:43 13.1 °C 12.0 °C 1021.9 hPa Calm     93 % 0.0 mm
03:48 13.0 °C 11.9 °C 1022.9 hPa Calm     93 % 0.0 mm
03:53 13.0 °C 12.1 °C 1022.9 hPa Calm     94 % 0.0 mm
03:58 12.9 °C 11.9 °C 1022.9 hPa Calm     94 % 0.0 mm
04:03 12.9 °C 11.9 °C 1021.9 hPa Calm     94 % 0.0 mm
04:08 12.9 °C 11.9 °C 1021.9 hPa Calm     94 % 0.0 mm
04:13 12.8 °C 11.8 °C 1021.9 hPa Calm     94 % 0.0 mm
04:18 12.8 °C 11.8 °C 1021.9 hPa Calm     94 % 0.0 mm
04:23 12.7 °C 11.8 °C 1021.9 hPa Calm     94 % 0.0 mm
04:28 12.7 °C 11.8 °C 1021.9 hPa Calm     94 % 0.0 mm
04:33 12.7 °C 11.8 °C 1021.9 hPa Calm     94 % 0.0 mm
04:38 12.7 °C 11.8 °C 1021.9 hPa Calm     94 % 0.0 mm
04:43 12.7 °C 11.8 °C 1021.9 hPa Calm     94 % 0.0 mm
04:48 12.6 °C 11.7 °C 1021.9 hPa Calm     94 % 0.0 mm
04:53 12.6 °C 11.7 °C 1021.9 hPa Calm     94 % 0.0 mm
04:58 12.6 °C 11.7 °C 1021.9 hPa Calm     94 % 0.0 mm
05:03 12.6 °C 11.7 °C 1022.9 hPa Calm     94 % 0.0 mm
05:08 12.6 °C 11.7 °C 1022.9 hPa Calm     94 % 0.0 mm
05:13 12.6 °C 11.8 °C 1022.9 hPa Calm     95 % 0.0 mm
05:18 12.5 °C 11.7 °C 1021.9 hPa Calm     95 % 0.0 mm
05:23 12.5 °C 11.6 °C 1021.9 hPa Calm     94 % 0.0 mm
05:28 12.5 °C 11.6 °C 1021.9 hPa Calm     94 % 0.0 mm
05:33 12.5 °C 11.7 °C 1021.9 hPa Calm     95 % 0.0 mm
05:38 12.5 °C 11.7 °C 1021.9 hPa Calm     95 % 0.0 mm
05:43 12.5 °C 11.7 °C 1021.9 hPa Calm     95 % 0.0 mm
05:48 12.5 °C 11.7 °C 1020.9 hPa Calm     95 % 0.0 mm
05:53 12.4 °C 11.6 °C 1020.9 hPa Calm     95 % 0.0 mm
05:58 12.4 °C 11.6 °C 1020.9 hPa Calm     95 % 0.0 mm
05:59 12.4 °C 11.6 °C 1020.9 hPa Calm     95 % 0.0 mm
06:04 12.4 °C 11.6 °C 1020.9 hPa Calm     95 % 0.0 mm
06:09 12.4 °C 11.6 °C 1020.9 hPa Calm     95 % 0.0 mm
06:14 12.4 °C 11.6 °C 1020.9 hPa Calm     95 % 0.0 mm
06:19 12.4 °C 11.6 °C 1021.9 hPa Calm     95 % 0.0 mm
06:24 12.3 °C 11.5 °C 1021.9 hPa Calm     95 % 0.0 mm
06:29 12.3 °C 11.5 °C 1021.9 hPa Calm     95 % 0.0 mm
06:34 12.4 °C 11.6 °C 1021.9 hPa Calm     95 % 0.0 mm
06:39 12.4 °C 11.6 °C 1021.9 hPa Calm     95 % 0.0 mm
06:44 12.5 °C 11.7 °C 1021.9 hPa Calm     95 % 0.0 mm
06:49 12.5 °C 11.7 °C 1021.9 hPa Calm     95 % 0.0 mm
06:54 12.6 °C 11.8 °C 1021.9 hPa Calm     95 % 0.0 mm
06:59 12.6 °C 11.8 °C 1021.9 hPa Calm     95 % 0.0 mm
07:04 12.8 °C 12.0 °C 1021.9 hPa Calm     95 % 0.0 mm
07:09 12.9 °C 12.3 °C 1021.9 hPa Calm     96 % 0.0 mm
07:14 13.1 °C 12.3 °C 1021.9 hPa Calm     95 % 0.0 mm
07:19 13.4 °C 12.8 °C 1020.9 hPa Calm     96 % 0.0 mm
07:24 13.6 °C 13.0 °C 1020.9 hPa Calm     96 % 0.0 mm
07:29 13.7 °C 13.1 °C 1020.9 hPa Calm     96 % 0.0 mm
07:34 13.9 °C 13.3 °C 1021.9 hPa Calm     96 % 0.0 mm
07:39 14.0 °C 13.4 °C 1021.9 hPa Calm     96 % 0.0 mm
07:44 14.2 °C 13.6 °C 1021.9 hPa Calm     96 % 0.0 mm
07:49 14.3 °C 13.7 °C 1021.9 hPa Calm   2.6 km/h 96 % 0.0 mm
07:54 14.7 °C 14.1 °C 1021.9 hPa ESE 0.5 km/h 3.5 km/h 96 % 0.0 mm
07:59 15.0 °C 14.2 °C 1021.9 hPa ESE 0.8 km/h 3.5 km/h 95 % 0.0 mm
08:04 15.2 °C 14.4 °C 1021.9 hPa ESE 0.8 km/h 3.5 km/h 95 % 0.0 mm
08:09 15.4 °C 14.6 °C 1021.9 hPa ESE 1.1 km/h 3.5 km/h 95 % 0.0 mm
08:14 15.7 °C 14.9 °C 1021.9 hPa ESE 1.4 km/h 3.5 km/h 95 % 0.0 mm
08:20 15.9 °C 15.1 °C 1021.9 hPa ESE 1.1 km/h 3.5 km/h 95 % 0.0 mm
08:24 16.2 °C 15.2 °C 1021.9 hPa ESE 0.5 km/h 4.0 km/h 94 % 0.0 mm
08:29 16.5 °C 15.6 °C 1021.9 hPa ESE 0.5 km/h 4.0 km/h 94 % 0.0 mm
08:35 16.8 °C 15.7 °C 1021.9 hPa ESE 0.5 km/h 4.0 km/h 93 % 0.0 mm
08:39 17.3 °C 16.0 °C 1021.9 hPa ESE 1.1 km/h 4.0 km/h 92 % 0.0 mm
08:45 17.9 °C 16.6 °C 1021.9 hPa ESE 1.1 km/h 4.0 km/h 92 % 0.0 mm
08:50 18.4 °C 16.9 °C 1021.9 hPa ESE 1.1 km/h 5.0 km/h 91 % 0.0 mm
08:55 18.9 °C 17.2 °C 1021.9 hPa SSE 2.4 km/h 6.1 km/h 90 % 0.0 mm
09:00 19.2 °C 17.3 °C 1021.9 hPa South 3.2 km/h 6.1 km/h 89 % 0.0 mm
09:04 19.6 °C 17.6 °C 1021.9 hPa South 2.4 km/h 5.0 km/h 88 % 0.0 mm
09:10 20.0 °C 17.4 °C 1021.9 hPa South 2.1 km/h 4.7 km/h 85 % 0.0 mm
09:15 20.3 °C 17.5 °C 1021.9 hPa SE 2.6 km/h 4.7 km/h 84 % 0.0 mm
09:19 20.8 °C 17.2 °C 1021.9 hPa ESE 3.1 km/h 4.7 km/h 80 % 0.0 mm
09:25 21.1 °C 17.5 °C 1021.9 hPa ESE 2.6 km/h 4.7 km/h 80 % 0.0 mm
09:30 21.3 °C 17.5 °C 1021.9 hPa ESE 1.8 km/h 4.0 km/h 79 % 0.0 mm
09:34 21.6 °C 17.4 °C 1022.9 hPa SSE 1.6 km/h 4.0 km/h 77 % 0.0 mm
09:40 21.9 °C 17.7 °C 1022.9 hPa SSE 2.3 km/h 5.8 km/h 77 % 0.0 mm
09:44 22.1 °C 17.4 °C 1022.9 hPa SE 2.9 km/h 5.8 km/h 75 % 0.0 mm
09:49 22.4 °C 17.6 °C 1022.9 hPa SE 1.6 km/h 5.5 km/h 74 % 0.0 mm
09:55 22.7 °C 17.4 °C 1022.9 hPa South 1.6 km/h 6.1 km/h 72 % 0.0 mm
09:59 22.8 °C 17.3 °C 1022.9 hPa SW 2.6 km/h 6.1 km/h 71 % 0.0 mm
10:02 22.9 °C 17.6 °C 1022.9 hPa SW 2.4 km/h 5.8 km/h 72 % 0.0 mm
10:07 23.1 °C 17.1 °C 1022.9 hPa SW 2.6 km/h 6.4 km/h 69 % 0.0 mm
10:12 23.3 °C 17.3 °C 1022.9 hPa SW 3.9 km/h 6.4 km/h 69 % 0.0 mm
10:17 23.5 °C 17.5 °C 1022.9 hPa SW 4.0 km/h 6.4 km/h 69 % 0.0 mm
10:22 23.5 °C 17.3 °C 1022.9 hPa WSW 4.2 km/h 8.7 km/h 68 % 0.0 mm
10:27 23.8 °C 17.6 °C 1022.9 hPa SW 5.1 km/h 13.7 km/h 68 % 0.0 mm
10:32 24.0 °C 17.5 °C 1022.9 hPa SSW 5.0 km/h 13.7 km/h 67 % 0.0 mm
10:37 24.1 °C 17.3 °C 1022.9 hPa South 3.7 km/h 6.4 km/h 66 % 0.0 mm
10:42 24.2 °C 16.9 °C 1022.9 hPa South 2.3 km/h 5.8 km/h 64 % 0.0 mm
10:47 24.4 °C 17.2 °C 1022.9 hPa SSE 2.9 km/h 7.9 km/h 64 % 0.0 mm
10:52 24.6 °C 17.3 °C 1022.9 hPa SSE 3.7 km/h 7.9 km/h 64 % 0.0 mm
10:57 24.8 °C 17.0 °C 1022.9 hPa SSE 4.5 km/h 10.1 km/h 62 % 0.0 mm
11:02 25.0 °C 16.7 °C 1022.9 hPa SSE 5.0 km/h 10.1 km/h 60 % 0.0 mm
11:07 25.2 °C 17.2 °C 1022.9 hPa SSE 4.8 km/h 9.3 km/h 61 % 0.0 mm
11:12 25.2 °C 15.8 °C 1022.9 hPa SSE 5.8 km/h 10.8 km/h 56 % 0.0 mm
11:14 25.2 °C 15.8 °C 1022.9 hPa SSE 6.0 km/h 10.8 km/h 56 % 0.0 mm
11:19 25.5 °C 15.8 °C 1022.9 hPa SE 6.0 km/h 10.8 km/h 55 % 0.0 mm
11:24 25.8 °C 16.1 °C 1022.9 hPa ESE 5.1 km/h 9.7 km/h 55 % 0.0 mm
11:29 26.0 °C 15.4 °C 1022.9 hPa ESE 4.0 km/h 7.9 km/h 52 % 0.0 mm
11:34 26.2 °C 15.3 °C 1022.9 hPa East 3.2 km/h 6.9 km/h 51 % 0.0 mm
11:39 26.4 °C 15.4 °C 1022.9 hPa East 4.3 km/h 9.7 km/h 51 % 0.0 mm
11:44 26.4 °C 15.1 °C 1022.9 hPa East 5.0 km/h 10.1 km/h 50 % 0.0 mm
11:49 26.6 °C 15.3 °C 1021.9 hPa East 4.3 km/h 10.1 km/h 50 % 0.0 mm
11:54 26.7 °C 15.1 °C 1021.9 hPa ESE 4.3 km/h 10.1 km/h 49 % 0.0 mm
11:59 26.8 °C 14.9 °C 1021.9 hPa ESE 4.5 km/h 10.1 km/h 48 % 0.0 mm
12:04 26.7 °C 14.8 °C 1021.9 hPa ESE 4.5 km/h 10.1 km/h 48 % 0.0 mm
12:09 26.8 °C 14.6 °C 1021.9 hPa ESE 4.3 km/h 10.1 km/h 47 % 0.0 mm
12:14 26.9 °C 14.6 °C 1021.9 hPa ESE 5.0 km/h 10.1 km/h 47 % 0.0 mm
12:19 26.8 °C 14.2 °C 1021.9 hPa ESE 5.8 km/h 11.9 km/h 46 % 0.0 mm
12:24 26.9 °C 14.6 °C 1021.9 hPa ESE 5.0 km/h 11.9 km/h 47 % 0.0 mm
12:29 27.0 °C 14.7 °C 1021.9 hPa ESE 4.5 km/h 10.5 km/h 47 % 0.0 mm
12:34 27.1 °C 14.8 °C 1021.9 hPa SE 6.1 km/h 12.6 km/h 47 % 0.0 mm
12:39 27.2 °C 14.6 °C 1021.9 hPa SE 7.2 km/h 12.6 km/h 46 % 0.0 mm
12:44 26.7 °C 14.1 °C 1021.9 hPa East 6.3 km/h 10.1 km/h 46 % 0.0 mm
12:49 26.8 °C 13.9 °C 1021.9 hPa ENE 4.7 km/h 9.3 km/h 45 % 0.0 mm
12:54 27.0 °C 14.1 °C 1021.9 hPa ENE 4.7 km/h 9.3 km/h 45 % 0.0 mm
12:59 27.3 °C 14.7 °C 1021.9 hPa East 5.6 km/h 14.0 km/h 46 % 0.0 mm
13:04 27.0 °C 13.7 °C 1020.9 hPa East 6.9 km/h 14.0 km/h 44 % 0.0 mm
13:09 27.0 °C 13.7 °C 1020.9 hPa East 5.1 km/h 12.6 km/h 44 % 0.0 mm
13:14 27.2 °C 13.9 °C 1020.9 hPa East 2.3 km/h 5.8 km/h 44 % 0.0 mm
13:19 27.4 °C 14.1 °C 1021.9 hPa SSE 3.1 km/h 7.9 km/h 44 % 0.0 mm
13:24 27.3 °C 14.3 °C 1021.9 hPa SSE 3.9 km/h 7.9 km/h 45 % 0.0 mm
13:29 27.5 °C 14.5 °C 1021.9 hPa ESE 3.1 km/h 6.1 km/h 45 % 0.0 mm
13:34 27.3 °C 14.3 °C 1020.9 hPa East 2.7 km/h 5.5 km/h 45 % 0.0 mm
13:39 26.9 °C 13.9 °C 1020.9 hPa East 3.4 km/h 9.7 km/h 45 % 0.0 mm
13:44 26.4 °C 13.5 °C 1020.9 hPa ESE 3.9 km/h 9.7 km/h 45 % 0.0 mm
13:49 26.1 °C 13.2 °C 1022.9 hPa ESE 4.3 km/h 9.3 km/h 45 % 0.0 mm
13:54 26.4 °C 13.8 °C 1022.9 hPa SE 4.5 km/h 8.7 km/h 46 % 0.0 mm
13:59 26.7 °C 14.1 °C 1022.9 hPa SW 3.9 km/h 6.4 km/h 46 % 0.0 mm
14:04 27.1 °C 14.5 °C 1021.9 hPa North 3.2 km/h 7.9 km/h 46 % 0.0 mm
14:09 27.4 °C 14.4 °C 1021.9 hPa East 4.2 km/h 10.1 km/h 45 % 0.0 mm
14:14 27.1 °C 14.2 °C 1021.9 hPa ESE 4.5 km/h 10.1 km/h 45 % 0.0 mm
14:19 27.1 °C 14.2 °C 1022.9 hPa South 3.9 km/h 9.7 km/h 45 % 0.0 mm
14:24 27.1 °C 14.2 °C 1022.9 hPa SSE 5.6 km/h 9.7 km/h 45 % 0.0 mm
14:29 27.6 °C 14.6 °C 1022.9 hPa South 7.2 km/h 13.0 km/h 45 % 0.0 mm
14:34 27.9 °C 14.9 °C 1021.9 hPa South 6.3 km/h 13.0 km/h 45 % 0.0 mm
14:39 28.2 °C 14.8 °C 1021.9 hPa SSE 5.0 km/h 10.1 km/h 44 % 0.0 mm
14:44 28.1 °C 14.7 °C 1021.9 hPa SSE 5.8 km/h 10.5 km/h 44 % 0.0 mm
14:49 27.9 °C 14.5 °C 1021.9 hPa South 4.8 km/h 10.5 km/h 44 % 0.0 mm
14:54 27.4 °C 14.1 °C 1021.9 hPa SW 5.3 km/h 10.5 km/h 44 % 0.0 mm
14:59 27.0 °C 13.3 °C 1021.9 hPa SSW 5.8 km/h 10.5 km/h 43 % 0.0 mm
15:04 26.8 °C 13.5 °C 1020.9 hPa SE 3.2 km/h 6.9 km/h 44 % 0.0 mm
15:09 26.7 °C 13.4 °C 1020.9 hPa South 2.4 km/h 6.4 km/h 44 % 0.0 mm
15:14 26.8 °C 13.9 °C 1020.9 hPa West 3.1 km/h 7.2 km/h 45 % 0.0 mm
15:19 27.0 °C 13.7 °C 1020.9 hPa WNW 3.7 km/h 9.0 km/h 44 % 0.0 mm
15:24 27.3 °C 14.0 °C 1020.9 hPa North 3.9 km/h 9.0 km/h 44 % 0.0 mm
15:25 27.3 °C 14.0 °C 1020.9 hPa North 3.9 km/h 9.0 km/h 44 % 0.0 mm
15:30 27.5 °C 14.2 °C 1020.9 hPa ENE 4.0 km/h 9.7 km/h 44 % 0.0 mm
15:35 27.3 °C 13.6 °C 1020.9 hPa East 4.5 km/h 9.7 km/h 43 % 0.0 mm
15:40 27.1 °C 13.4 °C 1020.9 hPa East 3.9 km/h 6.9 km/h 43 % 0.0 mm
15:45 27.1 °C 13.4 °C 1020.9 hPa ESE 2.7 km/h 6.4 km/h 43 % 0.0 mm
15:50 26.9 °C 13.3 °C 1020.9 hPa South 2.7 km/h 9.3 km/h 43 % 0.0 mm
15:55 27.3 °C 13.6 °C 1020.9 hPa SSW 3.5 km/h 9.3 km/h 43 % 0.0 mm
16:00 27.7 °C 14.0 °C 1020.9 hPa SSE 3.4 km/h 7.9 km/h 43 % 0.0 mm
16:05 27.6 °C 13.9 °C 1019.9 hPa ESE 3.1 km/h 7.9 km/h 43 % 0.0 mm
16:10 27.7 °C 14.0 °C 1019.9 hPa East 3.7 km/h 6.4 km/h 43 % 0.0 mm
16:15 27.8 °C 14.1 °C 1019.9 hPa ENE 4.5 km/h 9.3 km/h 43 % 0.0 mm
16:20 28.1 °C 14.0 °C 1020.9 hPa East 4.8 km/h 9.3 km/h 42 % 0.0 mm
16:25 28.3 °C 14.2 °C 1020.9 hPa SE 4.8 km/h 9.3 km/h 42 % 0.0 mm
16:30 28.4 °C 13.9 °C 1020.9 hPa SSE 5.0 km/h 9.3 km/h 41 % 0.0 mm
16:35 28.2 °C 13.3 °C 1020.9 hPa SE 3.9 km/h 6.9 km/h 40 % 0.0 mm
16:40 28.0 °C 13.2 °C 1020.9 hPa East 4.0 km/h 10.1 km/h 40 % 0.0 mm
16:45 27.8 °C 13.3 °C 1020.9 hPa East 5.0 km/h 10.1 km/h 41 % 0.0 mm
16:50 28.0 °C 13.2 °C 1019.9 hPa East 4.2 km/h 10.1 km/h 40 % 0.0 mm
16:55 27.9 °C 13.4 °C 1019.9 hPa East 3.4 km/h 9.3 km/h 41 % 0.0 mm
17:00 27.5 °C 12.7 °C 1019.9 hPa East 4.0 km/h 6.9 km/h 40 % 0.0 mm
17:05 27.7 °C 12.9 °C 1019.9 hPa East 2.6 km/h 6.9 km/h 40 % 0.0 mm
17:10 27.5 °C 13.1 °C 1019.9 hPa ENE 1.8 km/h 7.9 km/h 41 % 0.0 mm
17:15 27.6 °C 13.2 °C 1019.9 hPa East 3.1 km/h 7.9 km/h 41 % 0.0 mm
17:20 27.7 °C 13.3 °C 1020.9 hPa ESE 3.9 km/h 7.9 km/h 41 % 0.0 mm
17:25 27.6 °C 13.2 °C 1020.9 hPa SE 4.5 km/h 6.9 km/h 41 % 0.0 mm
17:30 27.6 °C 13.2 °C 1020.9 hPa SE 3.2 km/h 6.9 km/h 41 % 0.0 mm
17:35 27.5 °C 13.4 °C 1020.9 hPa SE 1.0 km/h 4.0 km/h 42 % 0.0 mm
17:40 27.3 °C 13.3 °C 1020.9 hPa SE 1.1 km/h 5.5 km/h 42 % 0.0 mm
17:45 27.2 °C 13.2 °C 1020.9 hPa ESE 1.8 km/h 5.5 km/h 42 % 0.0 mm
17:50 27.0 °C 13.3 °C 1020.9 hPa SE 2.1 km/h 5.0 km/h 43 % 0.0 mm
17:55 26.8 °C 13.2 °C 1020.9 hPa South 2.4 km/h 4.3 km/h 43 % 0.0 mm
18:00 26.6 °C 13.0 °C 1020.9 hPa South 2.1 km/h 4.3 km/h 43 % 0.0 mm
18:05 26.2 °C 12.6 °C 1020.9 hPa South 1.0 km/h 4.0 km/h 43 % 0.0 mm
18:10 25.7 °C 12.6 °C 1020.9 hPa SSW 0.3 km/h 2.1 km/h 44 % 0.0 mm
18:15 25.4 °C 12.6 °C 1020.9 hPa SSW 0.8 km/h 4.3 km/h 45 % 0.0 mm
18:20 25.2 °C 12.4 °C 1020.9 hPa SSE 2.4 km/h 6.4 km/h 45 % 0.0 mm
18:25 24.9 °C 12.5 °C 1020.9 hPa SSE 2.9 km/h 6.4 km/h 46 % 0.0 mm
18:30 24.7 °C 12.6 °C 1020.9 hPa SW 1.6 km/h 5.0 km/h 47 % 0.0 mm
18:35 24.4 °C 12.3 °C 1019.9 hPa WSW 1.8 km/h 5.0 km/h 47 % 0.0 mm
18:40 24.1 °C 12.4 °C 1019.9 hPa WSW 1.3 km/h 4.0 km/h 48 % 0.0 mm
18:45 23.9 °C 12.8 °C 1019.9 hPa NW 1.0 km/h 5.0 km/h 50 % 0.0 mm
18:47 23.8 °C 12.7 °C 1019.9 hPa NW 1.3 km/h 5.0 km/h 50 % 0.0 mm
18:52 23.6 °C 12.9 °C 1019.9 hPa NW 2.1 km/h 5.0 km/h 51 % 0.0 mm
18:57 23.3 °C 12.9 °C 1019.9 hPa NW 1.9 km/h 5.0 km/h 52 % 0.0 mm
19:02 23.0 °C 13.4 °C 1019.9 hPa WNW 1.0 km/h 4.3 km/h 55 % 0.0 mm
19:07 22.7 °C 14.0 °C 1019.9 hPa Calm     58 % 0.0 mm
19:12 22.5 °C 13.8 °C 1019.9 hPa NW 0.3 km/h 5.0 km/h 58 % 0.0 mm
19:17 22.2 °C 13.6 °C 1019.9 hPa NW 1.9 km/h 6.9 km/h 58 % 0.0 mm
19:22 21.9 °C 13.8 °C 1019.9 hPa NW 2.4 km/h 6.9 km/h 60 % 0.0 mm
19:27 21.7 °C 13.8 °C 1019.9 hPa NW 1.4 km/h 5.8 km/h 61 % 0.0 mm
19:32 21.4 °C 13.8 °C 1019.9 hPa NW 1.8 km/h 6.4 km/h 62 % 0.0 mm
19:37 21.2 °C 13.9 °C 1020.9 hPa NW 2.1 km/h 6.4 km/h 63 % 0.0 mm
19:42 20.9 °C 14.1 °C 1020.9 hPa NNW 1.9 km/h 5.5 km/h 65 % 0.0 mm
19:47 20.8 °C 14.2 °C 1020.9 hPa NNW 1.1 km/h 4.7 km/h 66 % 0.0 mm
19:52 20.5 °C 14.4 °C 1020.9 hPa North 0.2 km/h   68 % 0.0 mm
19:57 20.2 °C 14.1 °C 1020.9 hPa Calm     68 % 0.0 mm
20:02 20.0 °C 13.9 °C 1020.9 hPa Calm     68 % 0.0 mm
20:07 19.8 °C 13.9 °C 1020.9 hPa Calm     69 % 0.0 mm
20:12 19.5 °C 13.9 °C 1020.9 hPa Calm     70 % 0.0 mm
20:17 19.4 °C 13.8 °C 1020.9 hPa Calm     70 % 0.0 mm
20:22 19.2 °C 13.6 °C 1020.9 hPa Calm     70 % 0.0 mm
20:27 19.0 °C 13.6 °C 1020.9 hPa Calm     71 % 0.0 mm
20:32 18.9 °C 13.7 °C 1020.9 hPa Calm     72 % 0.0 mm
20:37 18.7 °C 13.8 °C 1020.9 hPa Calm     73 % 0.0 mm
20:42 18.6 °C 13.9 °C 1020.9 hPa Calm     74 % 0.0 mm
20:47 18.4 °C 13.4 °C 1020.9 hPa Calm     73 % 0.0 mm
20:52 18.3 °C 13.6 °C 1021.9 hPa Calm     74 % 0.0 mm
20:57 18.1 °C 13.6 °C 1021.9 hPa Calm     75 % 0.0 mm
21:02 17.9 °C 13.6 °C 1021.9 hPa Calm     76 % 0.0 mm
21:07 17.8 °C 13.5 °C 1021.9 hPa Calm     76 % 0.0 mm
21:12 17.6 °C 13.5 °C 1021.9 hPa Calm     77 % 0.0 mm
21:17 17.5 °C 13.4 °C 1021.9 hPa Calm     77 % 0.0 mm
21:18 17.5 °C 13.4 °C 1021.9 hPa Calm     77 % 0.0 mm
21:23 17.4 °C 13.5 °C 1021.9 hPa Calm     78 % 0.0 mm
21:28 17.3 °C 13.4 °C 1021.9 hPa Calm     78 % 0.0 mm
21:33 17.2 °C 13.3 °C 1021.9 hPa Calm     78 % 0.0 mm
21:38 17.0 °C 13.3 °C 1021.9 hPa Calm     79 % 0.0 mm
21:43 16.9 °C 13.2 °C 1021.9 hPa Calm     79 % 0.0 mm
21:48 16.8 °C 13.3 °C 1021.9 hPa Calm     80 % 0.0 mm
21:53 16.7 °C 13.4 °C 1021.9 hPa Calm     81 % 0.0 mm
21:58 16.6 °C 13.3 °C 1021.9 hPa Calm     81 % 0.0 mm
22:03 16.5 °C 13.2 °C 1021.9 hPa Calm     81 % 0.0 mm
22:08 16.4 °C 13.1 °C 1021.9 hPa Calm     81 % 0.0 mm
22:13 16.3 °C 13.2 °C 1021.9 hPa Calm     82 % 0.0 mm
22:18 16.2 °C 13.1 °C 1021.9 hPa Calm     82 % 0.0 mm
22:24 16.1 °C 13.0 °C 1021.9 hPa Calm     82 % 0.0 mm
22:29 16.1 °C 13.0 °C 1021.9 hPa Calm     82 % 0.0 mm
22:34 16.0 °C 12.9 °C 1021.9 hPa Calm     82 % 0.0 mm
22:39 15.9 °C 13.0 °C 1021.9 hPa Calm     83 % 0.0 mm
22:44 15.8 °C 12.9 °C 1021.9 hPa Calm     83 % 0.0 mm
22:49 15.8 °C 12.9 °C 1020.9 hPa Calm     83 % 0.0 mm
22:54 15.7 °C 13.0 °C 1020.9 hPa Calm     84 % 0.0 mm
22:59 15.6 °C 12.9 °C 1020.9 hPa Calm     84 % 0.0 mm
23:04 15.6 °C 12.7 °C 1021.9 hPa Calm     83 % 0.0 mm
23:09 15.5 °C 12.8 °C 1021.9 hPa Calm     84 % 0.0 mm
23:14 15.4 °C 12.7 °C 1021.9 hPa Calm     84 % 0.0 mm
23:19 15.4 °C 12.9 °C 1020.9 hPa Calm     85 % 0.0 mm
23:24 15.4 °C 12.7 °C 1020.9 hPa Calm     84 % 0.0 mm
23:29 15.3 °C 12.8 °C 1020.9 hPa Calm     85 % 0.0 mm
23:34 15.2 °C 12.7 °C 1020.9 hPa Calm     85 % 0.0 mm
23:39 15.2 °C 12.7 °C 1020.9 hPa Calm     85 % 0.0 mm
23:44 15.1 °C 12.6 °C 1020.9 hPa Calm     85 % 0.0 mm
23:49 15.1 °C 12.8 °C 1020.9 hPa Calm     86 % 0.0 mm
23:54 15.1 °C 12.8 °C 1020.9 hPa Calm     86 % 0.0 mm
23:59 15.1 °C 12.9 °C 1020.9 hPa Calm     87 % 0.0 mm
Vremenska postaja Senovo
Podatki zbrani iz Weather Underground - 3 mb

Script developed by  Jim McMurry - jmcmurry@mwt.net Adapted for the template by  Wim van der Kuil - Leuven-Template.eu

Vremenski podatki so objavljeni na:

WeatherCloud

Weather Underground

AWEKAS

HAMweather, WeatherForYou, PWS Weather

MapView

Geostik

Slovenia weather network

Oprema, ki se uporablja:

Vremenski program
Cumulus

Cumulus